Fidelity, Illinois
Current Conditions -  °F | °C
As of 9:50 AM on Friday 19 Dec 2014 (Local Time) from KALN Reporting Station
Haze Haze  
Wind Chill: 27°   Ceiling: 900
Heat Index: 32°   Visibility: 5mi
Dew Point: 28°   Wind: 5mph
Humidity: 87%   Direction: NA
Pressure: 30.33"   Gusts: NA
Location:  39.15°N, 90.16°W
Report Text: KALN 191550Z VRB04KT 5SM BR OVC009 00/M02 A3033
Loading
Personal Weather Stations






























Interactive Weather Map New forecast layout! Learn more

10-Day Weather Forecast

Advertisements
Track Severe Weather on mobile